createdAt,value
2023-10-10T00:15:23.820Z,68.00
2023-10-10T00:17:50.703Z,68.00
2023-10-10T00:20:23.304Z,67.90
2023-10-10T00:27:16.370Z,67.90
2023-10-10T00:29:46.079Z,67.80
2023-10-10T00:32:23.047Z,67.80
2023-10-10T00:34:51.878Z,67.70
2023-10-10T00:37:27.110Z,67.70
2023-10-10T00:39:54.007Z,67.70
2023-10-10T00:42:21.770Z,67.60
2023-10-10T00:44:49.505Z,67.70
2023-10-10T00:47:17.370Z,67.50
2023-10-10T00:49:46.442Z,67.50
2023-10-10T00:52:17.953Z,67.50
2023-10-10T00:54:45.043Z,67.50
2023-10-10T00:57:15.107Z,67.50
2023-10-10T00:59:46.098Z,67.40
2023-10-10T04:40:46.677Z,68.60
2023-10-10T04:43:31.898Z,68.50
2023-10-10T04:46:17.269Z,68.40
2023-10-10T04:49:02.451Z,68.40
2023-10-10T04:51:47.793Z,68.30
2023-10-10T04:54:33.008Z,68.20
2023-10-10T04:57:18.634Z,68.20
2023-10-10T05:00:04.254Z,68.20
2023-10-10T05:02:49.663Z,68.10
2023-10-10T05:05:35.244Z,68.00
2023-10-10T05:08:20.625Z,67.90
2023-10-10T05:11:06.024Z,67.90
2023-10-10T05:13:51.257Z,67.90
2023-10-10T05:16:36.428Z,67.70
2023-10-10T05:19:21.823Z,67.80
2023-10-10T05:22:07.043Z,67.80
2023-10-10T05:24:37.132Z,67.80
2023-10-10T05:27:03.990Z,67.70
2023-10-10T05:29:34.664Z,67.70
2023-10-10T05:32:09.272Z,67.60
2023-10-10T05:34:36.275Z,67.70
2023-10-10T05:37:03.019Z,67.60
2023-10-10T05:39:33.651Z,67.60
2023-10-10T05:42:02.351Z,67.50
2023-10-10T05:44:30.633Z,67.50
2023-10-10T05:46:57.441Z,67.40
2023-10-10T05:49:24.444Z,67.50
2023-10-10T05:51:53.002Z,67.60
2023-10-10T05:54:20.480Z,67.50
2023-10-10T05:56:47.868Z,67.00
2023-10-10T05:59:14.807Z,65.70
2023-10-10T06:01:41.642Z,65.10
2023-10-10T06:04:09.440Z,64.90
2023-10-10T06:06:37.355Z,64.90
2023-10-10T06:09:06.414Z,65.10
2023-10-10T06:11:35.414Z,65.50
2023-10-10T06:14:02.935Z,65.80
2023-10-10T06:16:29.936Z,66.00
2023-10-10T06:18:56.798Z,66.20
2023-10-10T06:21:23.588Z,67.00
2023-10-10T06:23:51.411Z,66.60
2023-10-10T06:26:22.782Z,66.60
2023-10-10T06:28:54.439Z,66.80
2023-10-10T06:31:22.369Z,67.00
2023-10-10T06:33:53.150Z,67.00
2023-10-10T06:36:24.277Z,67.20
2023-10-10T06:39:04.938Z,67.30
2023-10-10T06:41:40.357Z,67.30
2023-10-10T06:44:19.263Z,67.50
2023-10-10T06:46:50.400Z,67.60
2023-10-10T06:49:19.503Z,67.70
2023-10-10T06:51:46.567Z,67.80
2023-10-10T06:54:29.487Z,67.70
2023-10-10T06:56:59.903Z,67.60
2023-10-10T06:59:30.278Z,67.60
2023-10-10T07:02:01.283Z,67.50
2023-10-10T07:04:28.722Z,67.50
2023-10-10T07:07:01.797Z,67.50
2023-10-10T07:09:30.199Z,67.50
2023-10-10T07:12:10.673Z,67.30
2023-10-10T07:14:42.044Z,67.40
2023-10-10T07:17:15.079Z,67.40
2023-10-10T07:20:01.956Z,67.40
2023-10-10T07:22:29.580Z,67.30
2023-10-10T07:25:07.774Z,67.50
2023-10-10T07:27:44.890Z,67.50
2023-10-10T07:30:18.028Z,67.40
2023-10-10T07:32:45.960Z,67.50
2023-10-10T07:35:15.958Z,67.30
2023-10-10T07:37:46.494Z,67.50
2023-10-10T07:40:21.414Z,67.30
2023-10-10T07:42:50.942Z,67.30
2023-10-10T07:45:27.722Z,67.20
2023-10-10T07:48:00.437Z,67.20
2023-10-10T07:50:58.613Z,67.20
2023-10-10T07:53:35.059Z,67.20
2023-10-10T07:56:04.607Z,68.00
2023-10-10T07:58:52.565Z,67.40
2023-10-10T08:01:20.838Z,67.60
2023-10-10T08:03:48.848Z,67.50
2023-10-10T08:06:23.247Z,67.70
2023-10-10T08:09:11.017Z,67.90
2023-10-10T08:11:39.553Z,67.80
2023-10-10T08:14:08.323Z,68.00
2023-10-10T08:16:45.040Z,68.10
2023-10-10T08:19:12.245Z,68.20
2023-10-10T08:21:40.918Z,68.30
2023-10-10T08:24:13.206Z,68.40
2023-10-10T08:26:40.419Z,68.40
2023-10-10T08:29:11.619Z,68.30
2023-10-10T08:31:40.597Z,68.40
2023-10-10T08:34:10.385Z,68.30
2023-10-10T08:36:38.581Z,68.30
2023-10-10T08:39:26.649Z,68.30
2023-10-10T08:41:54.235Z,68.20
2023-10-10T08:44:22.212Z,67.90
2023-10-10T08:46:50.246Z,67.80
2023-10-10T08:49:17.487Z,67.80
2023-10-10T08:51:45.915Z,67.50
2023-10-10T08:54:14.233Z,67.70
2023-10-10T08:56:45.965Z,67.80
2023-10-10T08:59:13.561Z,67.70
2023-10-10T09:01:43.334Z,67.70
2023-10-10T09:04:20.023Z,67.40
2023-10-10T09:06:57.554Z,67.60
2023-10-10T09:09:39.205Z,67.50
2023-10-10T09:12:13.890Z,67.30
2023-10-10T09:14:42.465Z,67.30
2023-10-10T09:17:29.885Z,67.30
2023-10-10T09:20:04.479Z,67.50
2023-10-10T09:22:44.442Z,67.30
2023-10-10T09:25:27.664Z,67.30
2023-10-10T09:28:04.718Z,67.30
2023-10-10T09:30:33.507Z,67.20
2023-10-10T09:33:03.907Z,67.30
2023-10-10T09:35:31.210Z,67.40
2023-10-10T09:38:01.273Z,67.40
2023-10-10T09:40:34.737Z,67.50
2023-10-10T09:43:02.268Z,67.50
2023-10-10T09:45:48.791Z,67.40
2023-10-10T09:48:29.390Z,67.30
2023-10-10T09:51:18.164Z,67.10
2023-10-10T09:53:48.471Z,66.70
2023-10-10T09:56:16.537Z,67.00
2023-10-10T09:58:48.144Z,67.20
2023-10-10T10:01:24.603Z,67.10
2023-10-10T10:04:01.727Z,67.00
2023-10-10T10:07:07.236Z,66.80
2023-10-10T10:10:10.567Z,66.50
2023-10-10T10:13:01.692Z,66.00
2023-10-10T10:15:49.874Z,66.00
2023-10-10T10:18:28.865Z,65.90
2023-10-10T10:21:08.475Z,65.90
2023-10-10T10:23:39.580Z,65.60
2023-10-10T10:26:09.731Z,65.80
2023-10-10T10:28:38.057Z,65.70
2023-10-10T10:31:09.246Z,65.70
2023-10-10T10:33:38.144Z,65.40
2023-10-10T10:36:15.915Z,65.30
2023-10-10T10:39:03.377Z,64.90
2023-10-10T10:41:43.098Z,64.80
2023-10-10T10:44:13.727Z,64.60
2023-10-10T10:46:41.951Z,64.40
2023-10-10T10:49:10.319Z,64.10
2023-10-10T10:51:43.376Z,64.00
2023-10-10T10:54:12.111Z,63.60
2023-10-10T10:56:39.621Z,63.40
2023-10-10T10:59:14.893Z,63.20
2023-10-10T11:01:53.940Z,63.00
2023-10-10T11:04:34.557Z,62.70
2023-10-10T11:07:08.883Z,62.70
2023-10-10T11:09:44.293Z,62.50
2023-10-10T11:12:11.174Z,62.20
2023-10-10T11:14:46.417Z,62.00
2023-10-10T11:17:20.410Z,61.70
2023-10-10T11:19:48.248Z,61.80
2023-10-10T11:22:33.615Z,61.70
2023-10-10T11:25:05.777Z,60.90
2023-10-10T11:27:45.466Z,61.40
2023-10-10T11:30:13.895Z,61.30
2023-10-10T11:32:48.720Z,61.20
2023-10-10T11:35:27.530Z,61.10
2023-10-10T11:38:01.012Z,60.60
2023-10-10T11:40:32.160Z,60.70
2023-10-10T11:43:00.559Z,60.80
2023-10-10T11:45:28.437Z,60.60
2023-10-10T11:48:06.545Z,60.30
2023-10-10T11:50:52.870Z,60.10
2023-10-10T11:53:24.917Z,59.40
2023-10-10T11:55:55.874Z,59.60
2023-10-10T11:58:36.942Z,59.30
2023-10-10T12:01:07.127Z,59.20
2023-10-10T12:03:40.923Z,58.40
2023-10-10T12:06:16.090Z,57.40
2023-10-10T12:08:46.714Z,56.50
2023-10-10T12:11:13.765Z,56.60
2023-10-10T12:13:40.707Z,56.40
2023-10-10T12:16:14.006Z,56.80
2023-10-10T12:18:45.882Z,56.50
2023-10-10T12:21:16.181Z,55.90
2023-10-10T12:23:43.324Z,55.40
2023-10-10T12:26:11.227Z,55.10
2023-10-10T12:28:38.063Z,54.30
2023-10-10T12:31:05.113Z,54.00
2023-10-10T12:33:33.050Z,54.30
2023-10-10T12:36:00.104Z,54.30
2023-10-10T12:38:27.012Z,54.70
2023-10-10T12:40:55.100Z,54.70
2023-10-10T12:43:25.874Z,54.70
2023-10-10T12:45:55.575Z,54.80
2023-10-10T12:48:23.412Z,54.80
2023-10-10T12:50:51.679Z,54.80
2023-10-10T12:53:20.877Z,54.90
2023-10-10T12:55:52.853Z,54.80
2023-10-10T12:58:23.746Z,54.70
2023-10-10T13:00:52.225Z,54.50
2023-10-10T13:03:19.830Z,54.50
2023-10-10T13:05:53.275Z,54.40
2023-10-10T13:08:25.669Z,54.40
2023-10-10T13:10:56.253Z,54.20
2023-10-10T13:13:32.754Z,54.40
2023-10-10T13:16:23.334Z,54.20
2023-10-10T13:18:55.192Z,54.20
2023-10-10T13:21:22.746Z,54.30
2023-10-10T13:23:55.216Z,54.20
2023-10-10T13:26:24.397Z,54.20
2023-10-10T13:28:51.335Z,54.20
2023-10-10T13:31:19.392Z,54.20
2023-10-10T13:33:46.876Z,54.30
2023-10-10T13:36:16.904Z,53.80
2023-10-10T13:38:50.943Z,53.70
2023-10-10T13:41:23.613Z,53.20
2023-10-10T13:43:52.082Z,53.40
2023-10-10T13:46:20.366Z,53.00
2023-10-10T13:48:48.192Z,52.50
2023-10-10T13:51:16.934Z,53.00
2023-10-10T13:53:46.092Z,53.10
2023-10-10T13:56:18.017Z,53.20
2023-10-10T13:58:48.519Z,53.30
2023-10-10T14:01:20.156Z,53.80
2023-10-10T14:03:49.229Z,53.60
2023-10-10T14:06:21.200Z,54.40
2023-10-10T14:08:51.060Z,53.60
2023-10-10T14:11:24.691Z,53.90
2023-10-10T14:13:55.605Z,54.00
2023-10-10T14:16:24.442Z,54.10
2023-10-10T14:18:51.760Z,54.10
2023-10-10T14:21:26.702Z,54.10
2023-10-10T14:24:05.969Z,54.20
2023-10-10T14:26:37.532Z,54.40
2023-10-10T14:29:08.759Z,54.30
2023-10-10T14:31:43.494Z,54.20
2023-10-10T14:34:16.573Z,54.30
2023-10-10T14:36:43.540Z,54.20
2023-10-10T14:39:29.198Z,53.80
2023-10-10T14:41:59.846Z,54.00
2023-10-10T14:44:27.856Z,53.60
2023-10-10T14:46:59.338Z,53.70
2023-10-10T14:49:32.903Z,53.50
2023-10-10T14:52:07.673Z,53.30
2023-10-10T14:54:39.301Z,53.50
2023-10-10T14:57:07.317Z,53.70
2023-10-10T14:59:35.252Z,53.70
2023-10-10T15:02:05.211Z,53.60
2023-10-10T15:04:34.749Z,53.30
2023-10-10T15:07:05.596Z,53.40
2023-10-10T15:09:36.387Z,53.60
2023-10-10T15:12:04.588Z,53.80
2023-10-10T15:14:33.634Z,53.90
2023-10-10T15:17:02.041Z,53.90
2023-10-10T15:19:29.255Z,53.70
2023-10-10T15:21:57.403Z,54.00
2023-10-10T15:24:25.231Z,54.00
2023-10-10T15:26:52.961Z,54.30
2023-10-10T15:29:22.333Z,54.40
2023-10-10T15:31:51.468Z,54.40
2023-10-10T15:34:18.746Z,54.50
2023-10-10T15:36:47.170Z,54.40
2023-10-10T15:39:15.049Z,54.30
2023-10-10T15:41:44.357Z,54.20
2023-10-10T15:44:13.856Z,54.20
2023-10-10T15:46:43.904Z,54.10
2023-10-10T15:49:25.237Z,54.00
2023-10-10T15:52:05.249Z,54.10
2023-10-10T15:54:35.383Z,54.10
2023-10-10T15:57:09.869Z,54.20
2023-10-10T15:59:42.682Z,54.20
2023-10-10T16:02:11.191Z,54.20
2023-10-10T16:04:43.661Z,54.30
2023-10-10T16:07:12.303Z,54.30
2023-10-10T16:09:39.879Z,54.30
2023-10-10T16:12:13.523Z,54.20
2023-10-10T16:14:40.751Z,54.80
2023-10-10T16:17:07.670Z,54.90
2023-10-10T16:19:37.152Z,54.80
2023-10-10T16:22:06.208Z,54.90
2023-10-10T16:24:33.613Z,55.10
2023-10-10T16:27:01.208Z,55.30
2023-10-10T16:29:34.495Z,55.50
2023-10-10T16:32:10.041Z,55.60
2023-10-10T16:34:41.493Z,55.50
2023-10-10T16:37:10.737Z,55.70
2023-10-10T16:39:39.941Z,55.80
2023-10-10T16:42:06.833Z,56.10
2023-10-10T16:44:34.956Z,56.20
2023-10-10T16:47:02.402Z,56.20
2023-10-10T16:49:29.425Z,56.30
2023-10-10T16:51:58.488Z,56.60
2023-10-10T16:54:27.096Z,56.50
2023-10-10T16:56:58.827Z,56.50
2023-10-10T16:59:25.827Z,56.70
2023-10-10T17:01:52.697Z,56.80
2023-10-10T17:04:20.830Z,56.90
2023-10-10T17:06:49.945Z,56.90
2023-10-10T17:09:17.125Z,57.00
2023-10-10T17:11:45.800Z,57.10
2023-10-10T17:14:14.527Z,56.20
2023-10-10T17:16:41.367Z,56.20
2023-10-10T17:19:16.847Z,56.60
2023-10-10T17:21:47.438Z,56.60
2023-10-10T17:24:21.968Z,56.80
2023-10-10T17:26:49.095Z,56.90
2023-10-10T17:29:16.482Z,56.90
2023-10-10T17:31:43.932Z,57.00
2023-10-10T17:34:16.469Z,57.00
2023-10-10T17:36:44.574Z,57.10
2023-10-10T17:39:16.365Z,57.30
2023-10-10T17:41:48.452Z,57.40
2023-10-10T17:44:18.081Z,57.50
2023-10-10T17:46:46.755Z,57.50
2023-10-10T17:49:13.732Z,57.50
2023-10-10T17:51:45.416Z,57.60
2023-10-10T17:54:12.874Z,57.60
2023-10-10T17:56:39.748Z,57.70
2023-10-10T17:59:07.455Z,57.80
2023-10-10T18:01:34.616Z,57.80
2023-10-10T18:04:04.385Z,57.90
2023-10-10T18:06:36.048Z,57.90
2023-10-10T18:09:08.901Z,58.00
2023-10-10T18:11:37.809Z,58.10
2023-10-10T18:14:08.967Z,58.10
2023-10-10T18:16:36.326Z,58.10
2023-10-10T18:19:04.029Z,58.20
2023-10-10T18:21:33.150Z,58.30
2023-10-10T18:24:07.054Z,58.40
2023-10-10T18:26:38.711Z,58.60
2023-10-10T18:29:07.155Z,58.60
2023-10-10T18:31:39.342Z,58.60
2023-10-10T18:34:06.678Z,58.70
2023-10-10T18:36:37.915Z,58.70
2023-10-10T18:39:12.823Z,58.60
2023-10-10T18:41:44.506Z,58.60
2023-10-10T18:44:12.958Z,58.50
2023-10-10T18:46:39.902Z,58.60
2023-10-10T18:49:06.950Z,58.70
2023-10-10T18:51:35.026Z,58.60
2023-10-10T18:54:01.947Z,58.60
2023-10-10T18:56:28.864Z,58.50
2023-10-10T18:58:56.520Z,58.60
2023-10-10T19:01:23.732Z,58.60
2023-10-10T19:03:50.858Z,58.60
2023-10-10T19:06:21.049Z,58.70
2023-10-10T19:08:49.346Z,58.70
2023-10-10T19:11:24.494Z,58.60
2023-10-10T19:13:51.581Z,58.60
2023-10-10T19:16:19.635Z,58.70
2023-10-10T19:18:47.024Z,58.70
2023-10-10T19:21:18.461Z,58.70
2023-10-10T19:23:50.982Z,58.70
2023-10-10T19:26:19.334Z,58.70
2023-10-10T19:28:54.351Z,58.80
2023-10-10T19:31:23.805Z,58.70
2023-10-10T19:33:51.488Z,58.90
2023-10-10T19:36:20.965Z,58.80
2023-10-10T19:38:48.094Z,59.40
2023-10-10T19:41:15.790Z,59.10
2023-10-10T19:43:43.700Z,58.90
2023-10-10T19:46:13.341Z,59.00
2023-10-10T19:48:44.155Z,58.80
2023-10-10T19:51:17.992Z,58.90
2023-10-10T19:53:46.049Z,58.90
2023-10-10T19:56:15.672Z,58.90
2023-10-10T19:58:46.567Z,58.90
2023-10-10T20:01:14.012Z,59.30
2023-10-10T20:03:44.439Z,59.00
2023-10-10T20:06:16.470Z,59.10
2023-10-10T20:08:43.397Z,58.90
2023-10-10T20:11:10.318Z,59.00
2023-10-10T20:13:37.184Z,58.90
2023-10-10T20:16:13.011Z,59.10
2023-10-10T20:18:45.096Z,59.10
2023-10-10T20:21:14.635Z,59.10
2023-10-10T20:23:43.149Z,59.10
2023-10-10T20:26:19.505Z,59.20
2023-10-10T20:28:48.333Z,59.30
2023-10-10T20:31:18.077Z,59.20
2023-10-10T20:33:48.472Z,59.20
2023-10-10T20:36:16.641Z,59.30
2023-10-10T20:38:44.375Z,59.20
2023-10-10T20:41:12.699Z,59.30
2023-10-10T20:43:43.374Z,59.40
2023-10-10T20:46:12.968Z,59.50
2023-10-10T20:48:41.117Z,59.50
2023-10-10T20:51:12.763Z,60.10
2023-10-10T20:53:43.118Z,59.50
2023-10-10T20:56:10.143Z,59.60
2023-10-10T20:58:39.267Z,59.60
2023-10-10T21:01:10.796Z,59.70
2023-10-10T21:03:39.107Z,59.60
2023-10-10T21:06:06.524Z,60.10
2023-10-10T21:08:33.959Z,60.10
2023-10-10T21:11:01.150Z,60.10
2023-10-10T21:13:27.992Z,60.00
2023-10-10T21:15:54.781Z,60.00
2023-10-10T21:18:21.855Z,59.90
2023-10-10T21:21:02.752Z,59.90
2023-10-10T21:23:31.458Z,60.00
2023-10-10T21:25:58.466Z,60.00
2023-10-10T21:28:26.312Z,60.10
2023-10-10T21:30:53.841Z,60.10
2023-10-10T21:33:20.968Z,60.00
2023-10-10T21:35:50.697Z,60.00
2023-10-10T21:38:18.430Z,60.10
2023-10-10T21:40:45.309Z,60.10
2023-10-10T21:43:12.260Z,60.00
2023-10-10T21:45:40.152Z,60.00
2023-10-10T21:48:10.665Z,60.30
2023-10-10T21:50:40.407Z,60.20
2023-10-10T21:53:09.036Z,60.30
2023-10-10T21:55:38.450Z,60.40
2023-10-10T21:58:06.449Z,60.30
2023-10-10T22:00:33.786Z,60.40
2023-10-10T22:03:05.337Z,60.50
2023-10-10T22:05:33.373Z,60.40
2023-10-10T22:08:00.989Z,60.30
2023-10-10T22:10:27.995Z,60.30
2023-10-10T22:12:55.647Z,60.40
2023-10-10T22:15:26.219Z,60.40
2023-10-10T22:17:58.569Z,60.40
2023-10-10T22:20:28.956Z,60.50
2023-10-10T22:22:56.067Z,60.60
2023-10-10T22:25:23.558Z,60.40
2023-10-10T22:27:52.613Z,60.50
2023-10-10T22:30:25.767Z,60.70
2023-10-10T22:32:55.509Z,60.50
2023-10-10T22:35:23.378Z,60.90
2023-10-10T22:37:51.684Z,60.60
2023-10-10T22:40:25.899Z,60.70
2023-10-10T22:43:05.621Z,60.60
2023-10-10T22:45:39.479Z,60.60
2023-10-10T22:48:10.506Z,60.60
2023-10-10T22:50:37.674Z,60.70
2023-10-10T22:53:05.670Z,60.70
2023-10-10T22:55:36.914Z,60.70
2023-10-10T22:58:07.433Z,60.90
2023-10-10T23:00:38.463Z,60.70
2023-10-10T23:03:13.798Z,60.80
2023-10-10T23:05:43.219Z,60.80
2023-10-10T23:08:12.477Z,61.10
2023-10-10T23:10:44.417Z,61.20
2023-10-10T23:13:16.615Z,61.10
2023-10-10T23:15:50.442Z,61.20
2023-10-10T23:18:18.189Z,61.10
2023-10-10T23:20:53.022Z,61.30
2023-10-10T23:23:19.902Z,61.10
2023-10-10T23:25:49.038Z,61.10
2023-10-10T23:28:15.725Z,61.00
2023-10-10T23:30:43.818Z,61.20
2023-10-10T23:33:12.688Z,61.30
2023-10-10T23:35:40.464Z,61.20
2023-10-10T23:38:07.453Z,61.20
2023-10-10T23:40:46.917Z,61.30
2023-10-10T23:43:23.958Z,61.10
2023-10-10T23:45:58.171Z,61.90
2023-10-10T23:48:32.248Z,61.20
2023-10-10T23:50:59.999Z,61.20
2023-10-10T23:53:26.950Z,61.20
2023-10-10T23:55:57.421Z,61.20
2023-10-10T23:58:26.500Z,61.20
